Time;durP1;ratioP1;P1;durP2;ratioP2;P2;SDS_P1;SDS_P2;PMS_P1;PMS_P2;Temp;Humidity;BMP_temperature;BMP_pressure;BME280_temperature;BME280_humidity;BME280_pressure;Samples;Min_cycle;Max_cycle;Signal;HPM_P1;HPM_P2
2023/01/04 00:00:11;;;;;;;186.02;27.02;;;;;;;1.10;100.00;100456.34;5055378;28;20036;-74
2023/01/04 00:02:36;;;;;;;127.57;26.13;;;;;;;1.55;100.00;100548.13;5055497;28;20102;-75
2023/01/04 00:05:02;;;;;;;185.48;28.90;;;;;;;1.48;100.00;100532.97;5053554;28;20044;-74
2023/01/04 00:07:28;;;;;;;220.85;31.88;;;;;;;1.11;100.00;100481.38;5054904;28;20083;-74
2023/01/04 00:09:54;;;;;;;92.05;27.15;;;;;;;1.20;100.00;100459.03;5054716;28;20087;-73
2023/01/04 00:12:19;;;;;;;116.38;28.25;;;;;;;1.80;100.00;100526.84;5054903;28;20495;-74
2023/01/04 00:14:45;;;;;;;79.32;25.63;;;;;;;1.56;100.00;100529.78;5055012;28;20115;-73
2023/01/04 00:17:11;;;;;;;111.10;29.48;;;;;;;1.16;100.00;100464.81;5054809;28;20040;-74
2023/01/04 00:19:36;;;;;;;198.60;33.28;;;;;;;1.13;100.00;100479.75;5053642;28;20033;-74
2023/01/04 00:22:02;;;;;;;108.60;28.98;;;;;;;1.45;100.00;100512.88;5054726;28;20035;-74
2023/01/04 00:24:27;;;;;;;228.32;32.65;;;;;;;0.98;100.00;100456.97;5054668;28;20071;-73
2023/01/04 00:26:52;;;;;;;173.13;29.45;;;;;;;1.68;100.00;100522.44;5054320;28;20519;-74
2023/01/04 00:29:18;;;;;;;119.32;28.30;;;;;;;1.15;100.00;100472.28;5054673;28;20127;-74
2023/01/04 00:31:44;;;;;;;179.02;30.98;;;;;;;1.43;100.00;100512.84;5054906;28;20052;-74
2023/01/04 00:34:13;;;;;;;165.90;28.77;;;;;;;1.34;100.00;100534.38;5053036;28;20503;-74
2023/01/04 00:36:38;;;;;;;124.35;26.83;;;;;;;1.33;100.00;100521.00;5053735;28;20025;-74
2023/01/04 00:39:07;;;;;;;152.32;28.20;;;;;;;0.94;100.00;100449.38;5054571;28;20036;-74
2023/01/04 00:41:50;;;;;;;221.45;30.63;;;;;;;1.24;100.00;100545.03;5053343;28;20502;-74
2023/01/04 00:44:16;;;;;;;143.32;28.73;;;;;;;0.15;100.00;100397.84;5054724;28;20043;-74
2023/01/04 00:46:42;;;;;;;172.50;29.23;;;;;;;0.91;100.00;100552.78;5052918;28;20021;-74
2023/01/04 00:49:10;;;;;;;251.00;33.67;;;;;;;0.32;100.00;100484.00;5053938;28;20083;-74
2023/01/04 00:51:38;;;;;;;260.17;34.55;;;;;;;0.27;100.00;100447.22;5054173;28;20036;-73
2023/01/04 00:54:06;;;;;;;255.38;34.88;;;;;;;0.58;100.00;100479.53;5053202;28;20060;-74
2023/01/04 00:56:32;;;;;;;147.73;29.85;;;;;;;0.48;100.00;100561.03;5054135;28;20028;-73
2023/01/04 00:59:00;;;;;;;281.58;34.17;;;;;;;0.39;100.00;100467.47;5054154;28;20033;-73
2023/01/04 01:01:27;;;;;;;290.52;35.97;;;;;;;0.78;100.00;100536.66;5052230;28;20036;-73
2023/01/04 01:03:54;;;;;;;251.70;33.88;;;;;;;0.30;100.00;100440.63;5053921;28;20055;-73
2023/01/04 01:06:21;;;;;;;103.55;28.58;;;;;;;0.94;100.00;100525.28;5052712;28;20122;-73
2023/01/04 01:08:46;;;;;;;113.35;27.42;;;;;;;0.38;100.00;100475.78;5053829;28;20032;-73
2023/01/04 01:11:12;;;;;;;245.15;31.40;;;;;;;0.47;100.00;100548.50;5053676;28;20029;-74
2023/01/04 01:13:38;;;;;;;165.52;28.58;;;;;;;0.68;100.00;100556.44;5054002;28;20092;-73
2023/01/04 01:16:05;;;;;;;271.52;30.90;;;;;;;0.62;100.00;100548.81;5051486;28;20040;-73
2023/01/04 01:18:31;;;;;;;129.63;26.73;;;;;;;0.77;100.00;100554.16;5053574;28;20071;-74
2023/01/04 01:20:56;;;;;;;277.40;30.85;;;;;;;0.37;100.00;100544.97;5053340;28;20067;-73
2023/01/04 01:23:22;;;;;;;89.13;24.05;;;;;;;0.58;100.00;100547.06;5053121;28;20419;-74
2023/01/04 01:25:47;;;;;;;146.18;26.45;;;;;;;0.73;100.00;100545.72;5052376;28;20055;-73
2023/01/04 01:28:13;;;;;;;266.83;31.02;;;;;;;0.45;100.00;100558.47;5053727;28;20060;-73
2023/01/04 01:30:40;;;;;;;87.45;26.42;;;;;;;0.73;100.00;100549.91;5053576;28;20154;-73
2023/01/04 01:33:06;;;;;;;171.45;28.90;;;;;;;0.39;100.00;100558.34;5052435;28;20062;-73
2023/01/04 01:35:33;;;;;;;93.65;27.08;;;;;;;0.40;100.00;100507.50;5052925;28;20033;-74
2023/01/04 01:37:58;;;;;;;141.73;29.98;;;;;;;0.85;100.00;100547.66;5052357;28;20037;-74
2023/01/04 01:40:23;;;;;;;138.43;29.52;;;;;;;1.02;100.00;100537.94;5053175;28;20097;-74
2023/01/04 01:42:49;;;;;;;73.28;26.00;;;;;;;0.94;100.00;100527.78;5053261;28;20419;-73
2023/01/04 01:45:33;;;;;;;121.68;29.38;;;;;;;1.06;100.00;100547.19;5051704;28;20291;-75
2023/01/04 01:48:04;;;;;;;138.88;27.45;;;;;;;0.65;100.00;100468.84;5052144;28;20033;-73
2023/01/04 01:50:40;;;;;;;84.33;27.23;;;;;;;1.22;100.00;100567.56;5053291;28;20025;-73
2023/01/04 01:53:07;;;;;;;286.20;34.47;;;;;;;0.57;100.00;100532.88;5052908;28;20037;-73
2023/01/04 01:55:35;;;;;;;164.15;29.70;;;;;;;0.49;100.00;100484.38;5052282;28;20112;-73
2023/01/04 01:58:02;;;;;;;233.63;33.50;;;;;;;0.69;100.00;100498.13;5052640;28;20025;-75
2023/01/04 02:00:28;;;;;;;265.25;35.83;;;;;;;0.84;100.00;100573.47;5051509;28;20036;-74
2023/01/04 02:03:06;;;;;;;140.48;30.38;;;;;;;0.62;100.00;100507.16;5052516;28;20130;-74
2023/01/04 02:05:32;;;;;;;130.82;28.48;;;;;;;1.07;100.00;100571.44;5051706;28;20029;-74
2023/01/04 02:08:00;;;;;;;85.72;27.50;;;;;;;0.76;100.00;100505.75;5052853;28;20112;-75
2023/01/04 02:10:26;;;;;;;64.47;25.65;;;;;;;0.80;100.00;100582.56;5051593;28;20379;-75
2023/01/04 02:12:51;;;;;;;109.13;28.15;;;;;;;0.99;100.00;100575.44;5052907;28;20040;-75
2023/01/04 02:15:18;;;;;;;86.35;28.63;;;;;;;1.14;100.00;100588.25;5053014;28;20406;-74
2023/01/04 02:17:58;;;;;;;154.95;30.80;;;;;;;1.07;100.00;100583.94;5052734;28;20041;-74
2023/01/04 02:20:41;;;;;;;116.45;28.85;;;;;;;1.12;100.00;100573.19;5051458;28;20059;-74
2023/01/04 02:23:38;;;;;;;114.57;29.30;;;;;;;0.72;100.00;100590.72;5052443;28;20029;-74
2023/01/04 02:26:24;;;;;;;103.80;27.88;;;;;;;0.85;100.00;100578.50;5052397;28;20115;-74
2023/01/04 02:29:08;;;;;;;125.85;28.95;;;;;;;0.95;100.00;100584.53;5052352;28;20056;-75
2023/01/04 02:32:05;;;;;;;155.05;32.65;;;;;;;0.86;100.00;100604.34;5052233;28;20491;-74
2023/01/04 02:35:00;;;;;;;189.10;32.40;;;;;;;0.68;100.00;100591.47;5052240;28;20081;-74
2023/01/04 02:38:02;;;;;;;59.97;24.08;;;;;;;0.95;100.00;100586.19;5051779;28;20041;-74
2023/01/04 02:40:40;;;;;;;61.40;24.08;;;;;;;0.96;100.00;100583.72;5051959;28;20099;-73
2023/01/04 02:46:17;;;;;;;160.68;21.05;;;;;;;0.15;100.00;100501.94;5052254;28;20036;-74
2023/01/04 02:51:32;;;;;;;191.88;22.40;;;;;;;0.86;100.00;100584.34;5052076;28;20047;-74
2023/01/04 02:54:03;;;;;;;121.78;20.70;;;;;;;0.57;100.00;100510.38;5051703;28;20071;-74
2023/01/04 02:56:48;;;;;;;62.25;21.25;;;;;;;1.18;100.00;100572.47;5051437;28;20130;-75
2023/01/04 02:59:37;;;;;;;278.10;27.35;;;;;;;0.75;100.00;100575.78;5050942;28;20154;-74
2023/01/04 03:08:24;;;;;;;90.05;18.10;;;;;;;0.81;100.00;100565.91;5051992;28;20502;-74
2023/01/04 03:11:01;;;;;;;170.05;21.88;;;;;;;0.74;100.00;100577.44;5051399;28;20040;-74
2023/01/04 03:13:32;;;;;;;153.85;21.52;;;;;;;0.72;100.00;100570.69;5050513;28;20487;-74
2023/01/04 03:16:03;;;;;;;;;;;;;;;0.97;100.00;100564.56;5051799;28;20039;-75
2023/01/04 03:18:34;;;;;;;97.38;20.92;;;;;;;0.38;100.00;100503.28;5051675;28;19920;-74
2023/01/04 03:21:03;;;;;;;86.88;19.75;;;;;;;0.77;100.00;100566.66;5050807;28;20029;-75
2023/01/04 03:36:02;;;;;;;69.80;17.80;;;;;;;0.74;100.00;100589.09;5051282;28;20063;-74
2023/01/04 03:50:42;;;;;;;100.88;26.60;;;;;;;0.50;100.00;100594.41;5051087;28;20040;-73
2023/01/04 03:53:09;;;;;;;64.15;26.38;;;;;;;0.17;100.00;100540.31;5051612;28;20036;-74
2023/01/04 03:55:38;;;;;;;48.35;24.35;;;;;;;0.27;100.00;100524.72;5050017;28;20073;-74
2023/01/04 03:58:04;;;;;;;49.53;25.80;;;;;;;0.75;100.00;100580.78;5051247;28;20117;-74
2023/01/04 04:00:30;;;;;;;58.00;26.58;;;;;;;0.37;100.00;100569.09;5039915;28;20032;-73
2023/01/04 04:03:05;;;;;;;46.70;24.63;;;;;;;0.10;100.00;100563.50;5050899;28;20049;-73
2023/01/04 04:08:29;;;;;;;39.92;21.27;;;;;;;2.17;100.00;100613.47;5051173;28;20098;-73
2023/01/04 04:13:47;;;;;;;76.32;29.40;;;;;;;0.43;100.00;100522.59;5050943;28;20043;-74
2023/01/04 04:16:13;;;;;;;79.82;27.42;;;;;;;1.00;100.00;100613.00;5049613;28;20103;-75
2023/01/04 04:18:38;;;;;;;58.05;26.77;;;;;;;0.33;100.00;100543.19;5049947;28;20459;-74
2023/01/04 04:21:04;;;;;;;85.93;27.05;;;;;;;0.14;100.00;100540.25;5048393;28;20082;-74
2023/01/04 04:23:29;;;;;;;67.53;25.83;;;;;;;0.70;100.00;100639.88;5050618;28;20487;-76
2023/01/04 04:25:55;;;;;;;57.80;25.50;;;;;;;0.74;100.00;100647.47;5050966;28;20032;-73
2023/01/04 04:28:20;;;;;;;66.68;29.13;;;;;;;0.78;100.00;100638.38;5049812;28;20036;-74
2023/01/04 04:30:48;;;;;;;67.32;28.52;;;;;;;0.68;100.00;100649.84;5050924;28;20482;-74
2023/01/04 04:33:14;;;;;;;54.50;26.88;;;;;;;0.77;100.00;100646.72;5050835;28;20053;-74
2023/01/04 04:35:39;;;;;;;53.33;27.35;;;;;;;0.97;100.00;100665.47;5050600;28;20119;-75
2023/01/04 04:38:05;;;;;;;53.03;24.90;;;;;;;0.26;100.00;100631.34;5049440;28;20032;-73
2023/01/04 04:43:14;;;;;;;51.72;24.73;;;;;;;0.83;100.00;100657.69;5054128;28;20419;-74
2023/01/04 04:45:39;;;;;;;52.50;24.88;;;;;;;0.10;100.00;100583.47;5053876;28;20020;-74
2023/01/04 04:48:05;;;;;;;48.13;24.50;;;;;;;0.87;100.00;100661.94;5053096;28;20476;-74
2023/01/04 04:50:30;;;;;;;95.20;52.15;;;;;;;0.65;100.00;100662.25;5052777;28;20028;-73
2023/01/04 04:52:55;;;;;;;87.43;37.45;;;;;;;0.38;100.00;100585.78;5052508;28;20533;-73
2023/01/04 04:55:21;;;;;;;93.25;43.10;;;;;;;0.57;100.00;100623.75;5053768;28;20124;-74
2023/01/04 04:57:47;;;;;;;78.97;35.70;;;;;;;0.46;100.00;100614.31;5054100;28;20025;-73
2023/01/04 05:00:13;;;;;;;91.25;42.72;;;;;;;0.61;100.00;100630.53;5052505;28;20039;-73
2023/01/04 05:02:38;;;;;;;103.35;35.10;;;;;;;0.82;100.00;100682.66;5055975;28;20053;-72
2023/01/04 05:05:04;;;;;;;82.68;34.10;;;;;;;0.48;100.00;100683.53;5072162;28;20032;-73
2023/01/04 05:07:29;;;;;;;119.35;34.40;;;;;;;-0.24;100.00;100622.59;5073651;28;20119;-73
2023/01/04 05:09:55;;;;;;;97.10;31.48;;;;;;;-0.30;100.00;100607.47;5072724;28;20479;-73
2023/01/04 05:15:04;;;;;;;98.63;32.80;;;;;;;-0.18;100.00;100639.44;5072805;28;20044;-72
2023/01/04 05:17:30;;;;;;;103.85;34.70;;;;;;;-0.14;100.00;100614.53;5073234;28;20029;-72
2023/01/04 05:19:55;;;;;;;72.10;32.50;;;;;;;0.46;100.00;100684.31;5062139;28;20537;-73
2023/01/04 05:22:21;;;;;;;148.27;40.97;;;;;;;0.48;100.00;100688.56;5051780;28;20029;-72
2023/01/04 05:24:46;;;;;;;82.57;37.67;;;;;;;0.54;100.00;100687.84;5052587;28;20036;-74
2023/01/04 05:27:11;;;;;;;90.35;37.05;;;;;;;0.53;100.00;100688.66;5051853;28;20521;-73
2023/01/04 05:32:21;;;;;;;128.77;43.97;;;;;;;0.17;100.00;100640.28;5052652;28;20043;-72
2023/01/04 05:34:46;;;;;;;159.82;46.60;;;;;;;0.46;100.00;100705.16;5052847;28;20032;-73
2023/01/04 05:37:11;;;;;;;167.32;52.08;;;;;;;0.35;100.00;100656.56;5051590;28;20123;-72
2023/01/04 05:39:37;;;;;;;124.28;49.15;;;;;;;0.65;100.00;100701.47;5052189;28;20035;-73
2023/01/04 05:44:46;;;;;;;66.80;29.17;;;;;;;4.38;100.00;100663.88;5049640;28;20044;-71
2023/01/04 05:47:12;;;;;;;146.48;36.58;;;;;;;0.80;100.00;100697.66;5035668;28;20034;-74
2023/01/04 05:49:37;;;;;;;131.55;36.40;;;;;;;0.73;100.00;100723.31;5048163;28;20064;-74
2023/01/04 05:52:02;;;;;;;126.63;36.90;;;;;;;0.14;100.00;100647.72;5050626;28;20107;-73
2023/01/04 05:54:28;;;;;;;147.20;39.75;;;;;;;0.52;100.00;100734.47;5052350;28;20483;-73
2023/01/04 05:56:53;;;;;;;196.32;48.67;;;;;;;-0.06;100.00;100667.22;5051473;28;20037;-72
2023/01/04 05:59:19;;;;;;;160.93;52.80;;;;;;;-0.17;100.00;100654.44;5052900;28;20068;-72
2023/01/04 06:01:44;;;;;;;114.13;51.58;;;;;;;0.34;100.00;100731.53;5051191;28;20047;-73
2023/01/04 06:04:09;;;;;;;90.78;44.42;;;;;;;0.37;100.00;100726.59;5053323;28;20727;-74
2023/01/04 06:06:35;;;;;;;59.60;33.53;;;;;;;0.36;100.00;100662.41;5051540;28;20033;-73
2023/01/04 06:09:00;;;;;;;94.70;40.15;;;;;;;0.18;100.00;100702.78;5051647;28;20070;-73
2023/01/04 06:11:26;;;;;;;85.03;35.75;;;;;;;0.13;100.00;100653.50;5051202;28;20111;-74
2023/01/04 06:13:51;;;;;;;110.07;39.55;;;;;;;0.04;100.00;100643.31;5052710;28;20013;-74
2023/01/04 06:16:16;;;;;;;98.85;40.47;;;;;;;0.72;100.00;100738.31;5052168;28;20112;-75
2023/01/04 06:18:42;;;;;;;75.50;33.53;;;;;;;0.20;100.00;100678.69;5052813;28;20406;-74
2023/01/04 06:21:07;;;;;;;51.35;26.25;;;;;;;0.30;100.00;100749.78;5052035;28;20029;-74
2023/01/04 06:23:32;;;;;;;33.55;19.77;;;;;;;0.15;100.00;100732.72;5052775;28;20538;-75
2023/01/04 06:25:58;;;;;;;32.72;19.30;;;;;;;0.32;100.00;100740.66;5052496;28;20035;-75
2023/01/04 06:28:23;;;;;;;38.60;22.38;;;;;;;0.34;100.00;100711.53;5051258;28;20035;-73
2023/01/04 06:30:49;;;;;;;45.03;25.75;;;;;;;-0.02;100.00;100654.81;5052070;28;20029;-74
2023/01/04 06:33:14;;;;;;;56.85;30.13;;;;;;;0.36;100.00;100753.25;5052333;28;20469;-73
2023/01/04 06:35:39;;;;;;;61.47;34.42;;;;;;;0.61;100.00;100753.06;5052202;28;20061;-74
2023/01/04 06:38:05;;;;;;;85.85;44.78;;;;;;;0.54;100.00;100748.72;5052091;28;20047;-74
2023/01/04 06:40:30;;;;;;;198.15;96.20;;;;;;;0.67;100.00;100744.88;5052168;28;20404;-73
2023/01/04 06:42:56;;;;;;;160.30;82.50;;;;;;;0.48;100.00;100705.19;5051545;28;20040;-74
2023/01/04 06:45:21;;;;;;;90.70;52.03;;;;;;;0.60;100.00;100753.88;5051821;28;20463;-73
2023/01/04 06:47:46;;;;;;;89.30;41.28;;;;;;;0.51;100.00;100713.66;5050914;28;20571;-72
2023/01/04 06:50:12;;;;;;;153.25;66.20;;;;;;;0.42;100.00;100715.06;5051939;28;20028;-74
2023/01/04 06:52:38;;;;;;;221.45;82.22;;;;;;;0.17;100.00;100665.28;5050258;28;20045;-73
2023/01/04 06:55:08;;;;;;;115.68;47.83;;;;;;;0.39;100.00;100733.34;5051411;28;20033;-73
2023/01/04 06:57:33;;;;;;;91.15;37.65;;;;;;;0.61;100.00;100742.22;5051711;28;20029;-74
2023/01/04 06:59:59;;;;;;;106.63;39.03;;;;;;;1.01;100.00;100767.34;5051454;28;20108;-73
2023/01/04 07:02:25;;;;;;;120.35;41.70;;;;;;;0.28;100.00;100688.91;5050988;28;20548;-74
2023/01/04 07:04:50;;;;;;;134.68;40.25;;;;;;;0.29;100.00;100793.91;5052055;28;20032;-73
2023/01/04 07:07:16;;;;;;;165.10;40.33;;;;;;;0.28;100.00;100776.38;5051457;28;20037;-74
2023/01/04 07:09:41;;;;;;;121.53;35.55;;;;;;;0.23;100.00;100776.25;5050278;28;20480;-73
2023/01/04 07:12:07;;;;;;;123.35;31.48;;;;;;;0.33;100.00;100780.69;5051464;28;20021;-72
2023/01/04 07:14:32;;;;;;;157.15;35.67;;;;;;;0.46;100.00;100774.34;5051394;28;20024;-73
2023/01/04 07:16:57;;;;;;;107.22;33.67;;;;;;;0.43;100.00;100765.13;5051710;28;20029;-74
2023/01/04 07:19:23;;;;;;;77.13;28.55;;;;;;;-0.02;100.00;100768.94;5051735;28;20033;-74
2023/01/04 07:21:48;;;;;;;113.82;34.63;;;;;;;0.32;100.00;100733.97;5049960;28;20502;-74
2023/01/04 07:24:14;;;;;;;95.57;36.10;;;;;;;0.55;100.00;100765.44;5051567;28;20560;-73
2023/01/04 07:26:39;;;;;;;121.72;37.05;;;;;;;0.55;100.00;100747.06;5051344;28;20108;-73
2023/01/04 07:29:14;;;;;;;70.50;29.88;;;;;;;0.47;100.00;100778.53;5050122;28;20056;-73
2023/01/04 07:31:40;;;;;;;63.80;27.73;;;;;;;0.81;100.00;100786.91;5051529;28;20060;-73
2023/01/04 07:34:06;;;;;;;68.20;28.88;;;;;;;0.86;100.00;100782.88;5051577;28;20033;-73
2023/01/04 07:36:31;;;;;;;79.68;29.35;;;;;;;1.19;100.00;100780.28;5051395;28;20491;-73
2023/01/04 07:39:00;;;;;;;126.55;29.33;;;;;;;0.99;100.00;100804.00;5051298;28;20025;-73
2023/01/04 07:41:26;;;;;;;81.65;27.90;;;;;;;0.45;100.00;100760.16;5051277;28;20036;-73
2023/01/04 07:43:51;;;;;;;107.38;27.42;;;;;;;0.75;100.00;100809.25;5049969;28;20422;-73
2023/01/04 07:46:16;;;;;;;98.55;25.77;;;;;;;0.55;100.00;100820.44;5051458;28;20568;-73
2023/01/04 07:48:42;;;;;;;132.20;27.42;;;;;;;0.26;100.00;100753.00;5050955;28;20033;-73
2023/01/04 07:51:07;;;;;;;102.30;27.42;;;;;;;0.16;100.00;100749.41;5050631;28;20028;-72
2023/01/04 07:53:33;;;;;;;71.53;24.13;;;;;;;0.36;100.00;100800.75;5051231;28;20499;-73
2023/01/04 07:55:59;;;;;;;76.80;23.25;;;;;;;0.41;100.00;100785.88;5049858;28;20419;-73
2023/01/04 07:58:25;;;;;;;156.82;27.42;;;;;;;0.94;100.00;100792.19;5051024;28;20091;-73
2023/01/04 08:00:51;;;;;;;127.97;26.98;;;;;;;0.72;100.00;100685.78;5050721;28;20480;-72
2023/01/04 08:03:17;;;;;;;148.20;25.98;;;;;;;0.49;100.00;100686.91;5049115;28;20076;-72
2023/01/04 08:05:42;;;;;;;153.82;22.83;;;;;;;0.43;100.00;100664.25;5051053;28;20025;-73
2023/01/04 08:08:08;;;;;;;146.70;22.95;;;;;;;0.63;100.00;100733.09;5049571;28;20442;-71
2023/01/04 08:10:33;;;;;;;109.28;23.00;;;;;;;0.73;100.00;100720.81;5048837;28;20033;-72
2023/01/04 08:12:59;;;;;;;146.30;23.98;;;;;;;0.75;100.00;100784.25;5050410;28;20059;-72
2023/01/04 08:15:25;;;;;;;123.70;24.00;;;;;;;0.80;100.00;100806.88;5052530;28;20029;-73
2023/01/04 08:17:51;;;;;;;165.68;26.55;;;;;;;0.98;100.00;100749.78;5054780;28;20025;-72
2023/01/04 08:20:17;;;;;;;120.40;26.65;;;;;;;1.35;100.00;100817.38;5054548;28;20035;-71
2023/01/04 08:22:42;;;;;;;118.45;28.65;;;;;;;1.21;100.00;100821.22;5054599;28;20025;-73
2023/01/04 08:25:08;;;;;;;78.50;28.98;;;;;;;1.09;100.00;100760.84;5054142;28;20055;-73
2023/01/04 08:27:33;;;;;;;72.15;29.27;;;;;;;1.40;100.00;100735.69;5054405;28;20055;-73
2023/01/04 08:29:59;;;;;;;84.10;26.52;;;;;;;1.38;100.00;100831.63;5054841;28;20068;-74
2023/01/04 08:32:24;;;;;;;53.35;25.80;;;;;;;2.14;100.00;100809.03;5055038;28;20037;-74
2023/01/04 08:34:50;;;;;;;71.35;28.80;;;;;;;1.64;100.00;100761.22;5054459;28;20033;-73
2023/01/04 08:37:15;;;;;;;59.30;27.73;;;;;;;1.74;100.00;100742.22;5054574;28;20029;-74
2023/01/04 08:39:40;;;;;;;64.50;28.15;;;;;;;2.06;100.00;100747.84;5054861;28;20033;-72
2023/01/04 08:42:06;;;;;;;62.80;29.42;;;;;;;2.70;100.00;100833.47;5054415;28;20033;-73
2023/01/04 08:44:33;;;;;;;74.55;33.30;;;;;;;2.38;100.00;100832.03;5054398;28;20036;-74
2023/01/04 08:46:59;;;;;;;77.00;34.75;;;;;;;2.55;100.00;100843.25;5053290;28;20492;-74
2023/01/04 08:49:25;;;;;;;85.85;41.15;;;;;;;2.77;100.00;100802.66;5053085;28;20115;-73
2023/01/04 08:51:50;;;;;;;92.60;44.08;;;;;;;2.79;100.00;100835.28;5053308;28;20083;-74
2023/01/04 08:54:16;;;;;;;89.43;45.13;;;;;;;2.84;100.00;100859.66;5053104;28;20060;-74
2023/01/04 08:56:42;;;;;;;93.85;46.13;;;;;;;2.88;100.00;100851.34;5053867;28;20043;-74
2023/01/04 08:59:10;;;;;;;104.97;50.17;;;;;;;2.99;100.00;100849.84;5054212;28;20063;-74
2023/01/04 09:01:35;;;;;;;98.07;47.67;;;;;;;3.05;100.00;100849.94;5052840;28;20033;-75
2023/01/04 09:04:01;;;;;;;117.57;55.97;;;;;;;2.85;100.00;100851.31;5052989;28;20068;-74
2023/01/04 09:06:27;;;;;;;116.72;53.55;;;;;;;2.67;100.00;100784.88;5054164;28;20032;-74
2023/01/04 09:08:55;;;;;;;121.28;57.95;;;;;;;3.03;100.00;100839.03;5054000;28;20491;-74
2023/01/04 09:11:21;;;;;;;115.43;56.53;;;;;;;3.32;100.00;100849.56;5053162;28;20032;-76
2023/01/04 09:13:47;;;;;;;133.88;63.92;;;;;;;3.51;100.00;100832.25;5054229;28;20047;-73
2023/01/04 09:16:15;;;;;;;135.95;70.68;;;;;;;3.27;100.00;100841.94;5053186;28;20044;-74
2023/01/04 09:18:42;;;;;;;122.80;63.65;;;;;;;2.99;100.00;100829.75;5054370;28;20032;-74
2023/01/04 09:21:18;;;;;;;135.85;77.18;;;;;;;3.02;100.00;100829.81;5052763;28;20130;-74
2023/01/04 09:23:44;;;;;;;134.95;63.65;;;;;;;3.36;100.00;100826.16;5053871;28;20098;-75
2023/01/04 09:26:16;;;;;;;161.05;72.85;;;;;;;3.45;100.00;100819.59;5052641;28;20122;-74
2023/01/04 09:28:42;;;;;;;179.27;86.55;;;;;;;2.69;100.00;100759.00;5053600;28;20040;-75
2023/01/04 09:31:16;;;;;;;168.40;84.38;;;;;;;3.17;100.00;100825.03;5052488;28;20037;-74
2023/01/04 09:33:43;;;;;;;166.93;80.43;;;;;;;3.41;100.00;100819.53;5053612;28;20113;-73
2023/01/04 09:36:13;;;;;;;150.45;76.45;;;;;;;3.11;100.00;100741.25;5052988;28;20104;-73
2023/01/04 09:38:38;;;;;;;150.65;75.20;;;;;;;3.20;100.00;100744.72;5053276;28;20392;-74
2023/01/04 09:41:12;;;;;;;158.75;79.70;;;;;;;3.73;100.00;100809.91;5052964;28;20039;-72
2023/01/04 09:43:51;;;;;;;152.52;76.97;;;;;;;3.31;100.00;100816.03;5053152;28;20031;-72
2023/01/04 09:46:49;;;;;;;143.80;78.93;;;;;;;3.17;100.00;100727.06;5053064;28;20040;-73
2023/01/04 09:49:25;;;;;;;150.90;78.18;;;;;;;3.97;100.00;100797.63;5052744;28;20044;-74
2023/01/04 09:51:59;;;;;;;182.50;93.00;;;;;;;4.14;100.00;100793.66;5051975;28;20033;-74
2023/01/04 09:54:31;;;;;;;189.10;93.60;;;;;;;4.10;100.00;100819.63;5051829;28;20028;-73
2023/01/04 09:56:58;;;;;;;201.48;103.18;;;;;;;4.03;100.00;100800.22;5052161;28;20056;-71
2023/01/04 09:59:31;;;;;;;197.77;107.95;;;;;;;3.71;100.00;100731.09;5052310;28;20029;-71
2023/01/04 10:02:22;;;;;;;193.68;105.78;;;;;;;4.23;100.00;100794.59;5050756;28;20092;-72
2023/01/04 10:04:50;;;;;;;211.73;116.72;;;;;;;4.30;100.00;100782.91;5052609;28;20051;-72
2023/01/04 10:07:30;;;;;;;222.70;120.90;;;;;;;4.07;100.00;100810.34;5051886;28;20119;-71
2023/01/04 10:09:57;;;;;;;224.85;125.35;;;;;;;4.25;100.00;100731.72;5051933;28;20025;-72
2023/01/04 10:12:28;;;;;;;233.43;130.13;;;;;;;4.71;100.00;100780.78;5052155;28;20036;-72
2023/01/04 10:15:21;;;;;;;215.27;115.50;;;;;;;4.70;100.00;100771.53;5052263;28;20028;-73
2023/01/04 10:18:18;;;;;;;211.27;116.35;;;;;;;4.61;100.00;100762.25;5052549;28;20037;-74
2023/01/04 10:21:10;;;;;;;203.38;111.28;;;;;;;4.87;100.00;100691.94;5045048;28;20033;-69
2023/01/04 10:23:50;;;;;;;;;;;;;;;4.96;100.00;100752.44;5052768;28;20733;-74
2023/01/04 10:26:25;;;;;;;217.07;124.70;;;;;;;5.01;100.00;100750.81;5050937;28;19920;-73
2023/01/04 10:29:25;;;;;;;206.75;107.93;;;;;;;4.98;100.00;100761.72;5050854;28;20041;-75
2023/01/04 10:32:19;;;;;;;194.15;103.40;;;;;;;5.28;100.00;100739.22;5052534;28;20033;-74
2023/01/04 10:34:46;;;;;;;178.32;93.80;;;;;;;5.20;100.00;100730.78;5051767;28;20415;-73
2023/01/04 10:37:19;;;;;;;173.50;89.72;;;;;;;5.46;100.00;100738.47;5051248;28;20021;-73
2023/01/04 10:39:49;;;;;;;161.18;84.32;;;;;;;5.18;100.00;100676.16;5050840;28;20033;-73
2023/01/04 10:42:29;;;;;;;165.20;88.70;;;;;;;5.14;100.00;100644.22;5051404;28;20033;-74
2023/01/04 10:44:57;;;;;;;144.77;78.13;;;;;;;5.48;100.00;100733.44;5051898;28;20040;-74
2023/01/04 10:48:01;;;;;;;135.82;75.00;;;;;;;5.80;100.00;100730.19;5052233;28;20036;-74
2023/01/04 10:50:35;;;;;;;99.07;52.63;;;;;;;8.16;100.00;100718.06;5050853;28;20032;-73
2023/01/04 10:53:09;;;;;;;148.02;80.72;;;;;;;5.93;100.00;100673.94;5051022;28;20029;-74
2023/01/04 10:55:57;;;;;;;139.65;80.45;;;;;;;6.22;100.00;100705.94;5052053;28;20024;-74
2023/01/04 10:58:32;;;;;;;141.45;79.40;;;;;;;6.52;100.00;100716.03;5050735;28;20039;-74
2023/01/04 11:01:11;;;;;;;133.32;75.68;;;;;;;6.33;100.00;100646.19;5050637;28;20025;-73
2023/01/04 11:03:57;;;;;;;135.23;73.93;;;;;;;7.07;100.00;100699.16;5050230;28;20044;-74
2023/01/04 11:06:33;;;;;;;133.13;73.65;;;;;;;6.81;100.00;100608.25;5050832;28;20057;-74
2023/01/04 11:09:03;;;;;;;127.07;74.88;;;;;;;7.41;100.00;100681.34;5051662;28;20507;-75
2023/01/04 11:11:40;;;;;;;127.93;77.30;;;;;;;7.35;100.00;100612.28;5050569;28;20103;-75
2023/01/04 11:14:06;;;;;;;123.45;72.82;;;;;;;7.86;100.00;100652.47;5052010;28;20055;-74
2023/01/04 11:16:32;;;;;;;123.88;74.88;;;;;;;8.23;100.00;100641.22;5050578;28;20060;-74
2023/01/04 11:18:58;;;;;;;114.82;75.63;;;;;;;8.00;100.00;100568.81;5050470;28;20534;-74
2023/01/04 11:21:31;;;;;;;112.07;72.05;;;;;;;8.27;100.00;100564.38;5050944;28;20028;-75
2023/01/04 11:24:02;;;;;;;110.60;72.30;;;;;;;8.09;100.00;100564.50;5051801;28;20106;-74
2023/01/04 11:26:40;;;;;;;121.28;76.03;;;;;;;8.58;100.00;100616.44;5051685;28;20029;-75
2023/01/04 11:29:23;;;;;;;107.47;69.80;;;;;;;8.54;100.00;100617.31;5051189;28;20384;-74
2023/01/04 11:32:01;;;;;;;114.07;72.03;;;;;;;8.20;100.00;100522.19;5051431;28;20037;-74
2023/01/04 11:34:48;;;;;;;108.38;73.47;;;;;;;8.93;100.00;100589.88;5050320;28;20487;-74
2023/01/04 11:37:37;;;;;;;121.38;75.72;;;;;;;8.69;100.00;100548.72;5051456;28;20487;-73
2023/01/04 11:40:17;;;;;;;115.97;80.65;;;;;;;9.01;100.00;100598.25;5051361;28;20028;-74
2023/01/04 11:43:19;;;;;;;117.18;78.47;;;;;;;9.20;100.00;100587.88;5051282;28;20029;-74
2023/01/04 11:45:53;;;;;;;114.78;75.18;;;;;;;9.23;100.00;100592.06;5051104;28;20029;-75
2023/01/04 11:48:30;;;;;;;121.20;78.63;;;;;;;8.92;100.00;100529.88;5049970;28;20432;-74
2023/01/04 11:50:56;;;;;;;105.93;73.35;;;;;;;9.25;100.00;100592.88;5054531;28;20089;-73
2023/01/04 11:53:26;;;;;;;112.30;74.40;;;;;;;9.38;100.00;100589.31;5054596;28;20040;-75
2023/01/04 11:56:13;;;;;;;103.32;67.68;;;;;;;8.97;100.00;100523.91;5055291;28;20033;-74
2023/01/04 11:58:40;;;;;;;104.72;69.85;;;;;;;8.91;100.00;100502.88;5055637;28;20106;-75
2023/01/04 12:01:18;;;;;;;107.45;75.63;;;;;;;8.58;100.00;100493.97;5055111;28;20029;-74
2023/01/04 12:03:44;;;;;;;103.32;71.57;;;;;;;8.76;100.00;100498.81;5054678;28;20519;-74
2023/01/04 12:06:28;;;;;;;97.55;71.60;;;;;;;9.42;100.00;100594.34;5055311;28;20043;-74
2023/01/04 12:08:54;;;;;;;100.18;72.22;;;;;;;9.36;100.00;100591.03;5055198;28;20032;-74